createdAt,value
2022-07-25T00:01:46.771Z,2.28
2022-07-25T00:04:14.754Z,2.05
2022-07-25T00:06:42.924Z,2.00
2022-07-25T00:09:09.995Z,1.90
2022-07-25T00:11:36.665Z,2.40
2022-07-25T00:14:04.758Z,2.10
2022-07-25T00:16:31.986Z,2.45
2022-07-25T00:18:59.095Z,2.40
2022-07-25T00:21:25.836Z,2.40
2022-07-25T00:23:52.459Z,2.38
2022-07-25T00:26:19.034Z,2.33
2022-07-25T00:28:45.581Z,2.03
2022-07-25T00:31:12.194Z,2.55
2022-07-25T00:33:40.229Z,2.50
2022-07-25T00:36:08.280Z,2.38
2022-07-25T00:38:35.412Z,2.13
2022-07-25T00:41:04.268Z,2.15
2022-07-25T00:43:31.078Z,1.90
2022-07-25T00:45:59.281Z,1.93
2022-07-25T00:48:27.680Z,2.13
2022-07-25T00:50:56.188Z,2.25
2022-07-25T00:53:22.853Z,2.20
2022-07-25T00:55:49.456Z,2.03
2022-07-25T00:58:16.349Z,2.03
2022-07-25T01:00:42.999Z,2.60
2022-07-25T01:03:09.654Z,2.60
2022-07-25T01:05:36.352Z,2.35
2022-07-25T01:08:03.911Z,2.30
2022-07-25T01:10:32.289Z,2.50
2022-07-25T01:12:59.033Z,2.17
2022-07-25T01:15:26.140Z,2.33
2022-07-25T01:17:52.746Z,2.30
2022-07-25T01:20:21.695Z,2.80
2022-07-25T01:22:48.859Z,2.57
2022-07-25T01:25:16.255Z,2.10
2022-07-25T01:27:43.998Z,2.35
2022-07-25T01:30:13.940Z,2.40
2022-07-25T01:32:40.979Z,2.50
2022-07-25T01:35:08.781Z,2.60
2022-07-25T01:37:36.069Z,2.58
2022-07-25T01:40:04.027Z,2.30
2022-07-25T01:42:30.885Z,2.38
2022-07-25T01:45:06.207Z,2.10
2022-07-25T01:47:33.045Z,3.70
2022-07-25T01:49:59.697Z,2.78
2022-07-25T01:52:26.247Z,2.90
2022-07-25T01:54:52.955Z,2.85
2022-07-25T01:57:19.992Z,3.00
2022-07-25T01:59:46.773Z,3.40
2022-07-25T02:02:13.422Z,3.33
2022-07-25T02:04:45.317Z,3.50
2022-07-25T02:07:11.945Z,3.65
2022-07-25T02:09:39.992Z,4.07
2022-07-25T02:12:07.456Z,3.43
2022-07-25T02:14:34.420Z,3.92
2022-07-25T02:17:01.000Z,3.72
2022-07-25T02:19:27.757Z,3.47
2022-07-25T02:21:54.454Z,3.50
2022-07-25T02:24:21.009Z,3.50
2022-07-25T02:26:48.060Z,3.55
2022-07-25T02:29:14.587Z,3.80
2022-07-25T02:31:41.184Z,3.35
2022-07-25T02:34:08.239Z,3.45
2022-07-25T02:36:35.184Z,3.77
2022-07-25T02:39:02.141Z,3.78
2022-07-25T02:41:30.006Z,3.60
2022-07-25T02:43:56.570Z,3.97
2022-07-25T02:46:23.270Z,3.90
2022-07-25T02:48:49.934Z,3.63
2022-07-25T02:51:18.546Z,3.85
2022-07-25T02:53:57.050Z,4.20
2022-07-25T02:56:24.587Z,3.95
2022-07-25T02:58:51.217Z,3.53
2022-07-25T03:01:18.077Z,4.20
2022-07-25T03:03:44.765Z,3.72
2022-07-25T03:06:11.452Z,3.88
2022-07-25T03:08:37.992Z,3.65
2022-07-25T03:11:04.860Z,3.47
2022-07-25T03:13:33.390Z,3.67
2022-07-25T03:16:00.581Z,3.80
2022-07-25T03:18:27.142Z,4.10
2022-07-25T03:20:53.877Z,3.58
2022-07-25T03:23:20.558Z,3.65
2022-07-25T03:25:47.178Z,3.93
2022-07-25T03:28:13.800Z,4.07
2022-07-25T03:30:40.546Z,3.65
2022-07-25T03:33:07.185Z,3.90
2022-07-25T03:35:33.872Z,3.17
2022-07-25T03:38:02.097Z,3.83
2022-07-25T03:40:28.852Z,3.85
2022-07-25T03:42:56.546Z,3.58
2022-07-25T03:45:23.245Z,3.50
2022-07-25T03:47:49.968Z,3.70
2022-07-25T03:50:16.572Z,3.50
2022-07-25T03:52:43.191Z,3.65
2022-07-25T03:55:13.330Z,3.72
2022-07-25T03:57:39.966Z,3.88
2022-07-25T04:00:09.504Z,4.18
2022-07-25T04:02:37.986Z,4.37
2022-07-25T04:05:07.349Z,4.10
2022-07-25T04:07:34.560Z,4.13
2022-07-25T04:10:03.223Z,3.95
2022-07-25T04:12:29.945Z,4.22
2022-07-25T04:14:56.652Z,4.00
2022-07-25T04:17:25.250Z,4.45
2022-07-25T04:19:52.627Z,4.60
2022-07-25T04:22:19.640Z,3.90
2022-07-25T04:24:46.385Z,5.00
2022-07-25T04:27:13.157Z,4.83
2022-07-25T04:29:39.866Z,4.40
2022-07-25T04:32:08.133Z,4.72
2022-07-25T04:34:34.980Z,5.22
2022-07-25T04:37:01.665Z,5.38
2022-07-25T04:39:28.402Z,4.73
2022-07-25T04:41:55.035Z,5.13
2022-07-25T04:44:25.426Z,5.22
2022-07-25T04:46:52.087Z,5.13
2022-07-25T04:49:19.358Z,4.82
2022-07-25T04:51:46.023Z,5.37
2022-07-25T04:54:12.694Z,4.85
2022-07-25T04:56:39.440Z,5.20
2022-07-25T04:59:07.217Z,4.88
2022-07-25T05:01:38.434Z,5.47
2022-07-25T05:04:05.534Z,5.07
2022-07-25T05:06:33.209Z,5.20
2022-07-25T05:08:59.850Z,4.88
2022-07-25T05:11:26.532Z,4.93
2022-07-25T05:13:53.210Z,5.13
2022-07-25T05:16:19.935Z,5.67
2022-07-25T05:18:46.730Z,4.72
2022-07-25T05:21:22.235Z,4.95
2022-07-25T05:23:48.979Z,5.18
2022-07-25T05:26:15.551Z,4.88
2022-07-25T05:28:42.342Z,4.67
2022-07-25T05:31:09.341Z,5.03
2022-07-25T05:33:36.219Z,4.43
2022-07-25T05:36:05.298Z,5.05
2022-07-25T05:44:17.955Z,4.93
2022-07-25T05:46:44.988Z,4.97
2022-07-25T05:49:12.270Z,4.85
2022-07-25T06:05:24.955Z,4.93
2022-07-25T06:07:51.638Z,4.83
2022-07-25T06:10:18.332Z,6.38
2022-07-25T06:12:46.657Z,5.78
2022-07-25T06:38:50.092Z,4.50
2022-07-25T06:41:16.768Z,4.28
2022-07-25T06:43:44.542Z,3.72
2022-07-25T06:46:11.473Z,4.65
2022-07-25T06:48:38.299Z,4.27
2022-07-25T06:51:07.841Z,3.97
2022-07-25T06:53:37.136Z,4.25
2022-07-25T06:56:04.030Z,3.65
2022-07-25T06:58:30.672Z,3.50
2022-07-25T07:01:01.893Z,3.47
2022-07-25T07:03:28.595Z,3.88
2022-07-25T07:05:55.460Z,3.33
2022-07-25T07:08:22.058Z,3.63
2022-07-25T07:10:48.844Z,3.20
2022-07-25T07:13:23.736Z,3.17
2022-07-25T07:15:51.755Z,3.03
2022-07-25T07:18:20.009Z,2.65
2022-07-25T07:20:50.649Z,2.95
2022-07-25T07:23:18.090Z,2.22
2022-07-25T07:25:47.216Z,2.40
2022-07-25T07:28:18.295Z,1.70
2022-07-25T07:31:14.692Z,1.60
2022-07-25T07:33:37.479Z,1.40
2022-07-25T07:36:04.383Z,1.10
2022-07-25T07:38:33.924Z,1.03
2022-07-25T07:41:05.826Z,0.95
2022-07-25T07:43:34.932Z,0.93
2022-07-25T07:46:01.994Z,0.70
2022-07-25T07:48:30.054Z,0.88
2022-07-25T07:50:57.520Z,0.50
2022-07-25T07:53:45.713Z,0.50
2022-07-25T07:56:12.603Z,0.40
2022-07-25T07:58:39.501Z,0.50
2022-07-25T08:01:07.419Z,0.43
2022-07-25T08:03:36.152Z,0.50
2022-07-25T08:06:09.321Z,0.50
2022-07-25T08:08:35.904Z,0.50
2022-07-25T08:11:06.212Z,0.40
2022-07-25T08:13:37.224Z,0.52
2022-07-25T08:16:04.815Z,0.50
2022-07-25T08:18:33.458Z,0.50
2022-07-25T08:21:03.450Z,0.40
2022-07-25T08:23:31.967Z,0.50
2022-07-25T08:25:59.480Z,0.90
2022-07-25T08:28:26.416Z,0.80
2022-07-25T08:30:53.202Z,1.02
2022-07-25T08:33:19.950Z,0.50
2022-07-25T08:35:53.541Z,0.60
2022-07-25T08:38:21.579Z,0.50
2022-07-25T08:40:48.446Z,0.83
2022-07-25T08:43:17.268Z,0.80
2022-07-25T08:45:46.096Z,0.52
2022-07-25T08:48:13.139Z,0.90
2022-07-25T08:50:40.147Z,0.60
2022-07-25T08:53:31.627Z,0.70
2022-07-25T08:55:58.597Z,0.93
2022-07-25T08:58:31.203Z,0.68
2022-07-25T09:03:32.934Z,0.90
2022-07-25T09:06:00.632Z,0.50
2022-07-25T09:08:27.463Z,0.68
2022-07-25T09:10:54.305Z,0.88
2022-07-25T09:13:22.329Z,0.50
2022-07-25T09:15:52.832Z,0.57
2022-07-25T09:18:25.493Z,0.60
2022-07-25T09:20:54.512Z,0.60
2022-07-25T09:23:28.375Z,0.57
2022-07-25T09:26:10.384Z,0.40
2022-07-25T09:32:33.117Z,0.80
2022-07-25T09:39:11.038Z,1.10
2022-07-25T09:41:40.642Z,0.73
2022-07-25T09:44:17.392Z,0.65
2022-07-25T09:49:15.695Z,1.35
2022-07-25T09:51:48.664Z,0.80
2022-07-25T09:54:19.499Z,0.70
2022-07-25T09:56:46.151Z,0.93
2022-07-25T09:59:12.754Z,1.20
2022-07-25T10:01:53.488Z,0.70
2022-07-25T10:04:23.076Z,0.55
2022-07-25T10:12:45.113Z,0.73
2022-07-25T10:15:15.056Z,0.82
2022-07-25T10:18:06.146Z,0.82
2022-07-25T10:20:33.030Z,1.20
2022-07-25T10:22:59.700Z,1.77
2022-07-25T10:33:28.993Z,1.30
2022-07-25T10:39:25.945Z,1.00
2022-07-25T10:44:58.454Z,1.10
2022-07-25T11:12:17.685Z,1.17
2022-07-25T11:14:44.501Z,1.30
2022-07-25T11:17:43.453Z,0.80
2022-07-25T11:20:12.831Z,1.17
2022-07-25T11:22:53.657Z,0.90
2022-07-25T11:25:58.112Z,0.80
2022-07-25T11:28:49.846Z,0.90
2022-07-25T11:31:24.041Z,1.30
2022-07-25T11:33:56.716Z,1.10
2022-07-25T11:36:23.900Z,1.30
2022-07-25T11:38:51.220Z,1.75
2022-07-25T11:45:20.181Z,1.33
2022-07-25T12:18:45.729Z,1.00
2022-07-25T12:21:13.741Z,1.20
2022-07-25T12:35:11.462Z,1.02
2022-07-25T12:42:22.556Z,1.42
2022-07-25T12:44:50.761Z,1.67
2022-07-25T12:47:25.299Z,1.50
2022-07-25T12:49:52.057Z,1.20
2022-07-25T13:04:43.777Z,1.25
2022-07-25T13:16:14.301Z,0.73
2022-07-25T13:21:26.231Z,0.70
2022-07-25T13:23:53.137Z,0.75
2022-07-25T13:38:38.441Z,1.10
2022-07-25T13:41:32.726Z,1.15
2022-07-25T13:44:05.908Z,1.75
2022-07-25T13:46:34.532Z,1.48
2022-07-25T13:55:22.513Z,0.90
2022-07-25T13:57:58.166Z,0.90
2022-07-25T14:00:34.595Z,1.00
2022-07-25T14:08:33.101Z,0.90
2022-07-25T14:11:01.707Z,0.73
2022-07-25T14:13:37.355Z,0.50
2022-07-25T14:19:45.100Z,0.43
2022-07-25T14:31:32.193Z,0.50
2022-07-25T14:34:22.162Z,0.50
2022-07-25T14:45:56.688Z,0.40
2022-07-25T14:48:23.368Z,0.40
2022-07-25T14:51:15.172Z,0.35
2022-07-25T14:59:38.865Z,0.30
2022-07-25T15:02:12.062Z,0.88
2022-07-25T15:04:53.660Z,0.30
2022-07-25T15:07:30.800Z,0.30
2022-07-25T15:15:59.936Z,0.30
2022-07-25T15:21:11.394Z,0.35
2022-07-25T15:23:38.599Z,0.30
2022-07-25T15:28:57.137Z,0.30
2022-07-25T15:31:27.963Z,0.30
2022-07-25T15:33:58.636Z,0.63
2022-07-25T15:36:29.367Z,0.30
2022-07-25T15:38:56.822Z,0.40
2022-07-25T15:41:23.572Z,0.30
2022-07-25T15:43:52.639Z,0.30
2022-07-25T15:46:19.382Z,0.40
2022-07-25T15:48:48.100Z,0.30
2022-07-25T15:51:16.878Z,0.43
2022-07-25T15:53:46.931Z,0.55
2022-07-25T15:56:16.362Z,0.40
2022-07-25T15:58:43.308Z,0.30
2022-07-25T16:01:10.143Z,0.30
2022-07-25T16:03:37.250Z,0.30
2022-07-25T16:06:05.643Z,0.35
2022-07-25T16:08:32.344Z,0.40
2022-07-25T16:10:59.866Z,0.30
2022-07-25T16:13:26.772Z,0.40
2022-07-25T16:15:53.707Z,0.37
2022-07-25T16:18:20.289Z,0.30
2022-07-25T16:20:49.088Z,0.77
2022-07-25T16:23:16.117Z,0.20
2022-07-25T16:25:45.176Z,0.50
2022-07-25T16:28:11.728Z,0.30
2022-07-25T16:30:38.569Z,0.30
2022-07-25T16:33:08.849Z,0.20
2022-07-25T16:35:35.775Z,0.65
2022-07-25T16:38:02.295Z,0.40
2022-07-25T16:40:30.935Z,0.40
2022-07-25T16:42:59.534Z,0.32
2022-07-25T16:45:27.974Z,0.20
2022-07-25T16:47:54.675Z,0.40
2022-07-25T16:50:23.843Z,0.30
2022-07-25T16:53:02.680Z,0.30
2022-07-25T16:55:29.404Z,0.47
2022-07-25T16:57:56.230Z,0.60
2022-07-25T17:00:24.736Z,0.40
2022-07-25T17:03:02.304Z,0.30
2022-07-25T17:05:30.105Z,1.10
2022-07-25T17:08:01.211Z,0.38
2022-07-25T17:10:29.795Z,0.40
2022-07-25T17:12:56.640Z,0.30
2022-07-25T17:15:23.385Z,0.30
2022-07-25T17:26:05.432Z,0.50
2022-07-25T17:28:32.278Z,0.60
2022-07-25T17:33:49.349Z,0.40
2022-07-25T17:36:16.102Z,0.50
2022-07-25T17:38:42.973Z,0.45
2022-07-25T17:41:09.503Z,0.75
2022-07-25T17:43:36.182Z,0.70
2022-07-25T17:46:03.935Z,0.50
2022-07-25T17:48:33.053Z,0.77
2022-07-25T17:50:59.804Z,0.65
2022-07-25T17:53:26.519Z,0.68
2022-07-25T17:55:56.594Z,1.27
2022-07-25T17:58:31.055Z,0.50
2022-07-25T18:01:01.147Z,0.50
2022-07-25T18:03:28.838Z,0.50
2022-07-25T18:05:56.136Z,0.93
2022-07-25T18:08:22.798Z,0.50
2022-07-25T18:10:50.541Z,0.60
2022-07-25T18:13:22.061Z,0.70
2022-07-25T18:15:50.328Z,0.57
2022-07-25T18:18:20.498Z,0.40
2022-07-25T18:23:31.371Z,0.55
2022-07-25T18:25:58.136Z,0.65
2022-07-25T18:28:25.167Z,0.63
2022-07-25T18:30:51.895Z,0.40
2022-07-25T18:33:20.247Z,0.83
2022-07-25T18:35:47.086Z,0.40
2022-07-25T18:38:18.144Z,0.50
2022-07-25T18:40:46.390Z,0.30
2022-07-25T18:43:29.790Z,0.50
2022-07-25T18:45:57.666Z,0.50
2022-07-25T18:48:28.946Z,0.50
2022-07-25T18:51:02.629Z,0.40
2022-07-25T20:00:56.676Z,0.53
2022-07-25T20:03:24.683Z,0.43
2022-07-25T20:05:52.812Z,0.82
2022-07-25T20:08:23.927Z,0.40
2022-07-25T20:10:53.738Z,1.00
2022-07-25T20:13:32.014Z,0.50
2022-07-25T20:15:59.815Z,0.98
2022-07-25T20:18:26.466Z,0.50
2022-07-25T20:20:53.134Z,0.80
2022-07-25T20:23:19.958Z,0.50
2022-07-25T20:25:48.569Z,0.63
2022-07-25T20:28:15.646Z,0.40
2022-07-25T20:30:43.180Z,0.60
2022-07-25T20:33:10.502Z,1.35
2022-07-25T20:35:38.171Z,0.47
2022-07-25T20:38:09.945Z,0.70
2022-07-25T20:40:39.246Z,0.50
2022-07-25T20:43:08.574Z,0.40
2022-07-25T20:45:35.274Z,1.02
2022-07-25T20:48:01.913Z,0.55
2022-07-25T20:50:28.803Z,0.80
2022-07-25T20:52:55.319Z,0.60
2022-07-25T20:55:22.414Z,0.75
2022-07-25T20:57:50.821Z,0.60
2022-07-25T21:00:18.147Z,0.75
2022-07-25T21:02:44.785Z,0.47
2022-07-25T21:05:11.484Z,0.55
2022-07-25T21:07:37.970Z,0.50
2022-07-25T21:10:05.011Z,0.77
2022-07-25T21:12:33.093Z,0.65
2022-07-25T21:15:01.332Z,0.80
2022-07-25T21:17:28.297Z,0.63
2022-07-25T21:19:55.008Z,1.00
2022-07-25T21:22:23.223Z,0.75
2022-07-25T21:24:49.957Z,0.65
2022-07-25T21:27:17.253Z,0.70
2022-07-25T21:29:43.912Z,0.60
2022-07-25T21:32:13.764Z,0.47
2022-07-25T21:34:41.397Z,0.40
2022-07-25T21:37:08.454Z,0.90
2022-07-25T21:39:35.627Z,0.60
2022-07-25T21:42:02.274Z,0.88
2022-07-25T21:44:31.393Z,0.85
2022-07-25T21:47:00.944Z,0.80
2022-07-25T21:49:46.129Z,0.55
2022-07-25T21:52:14.257Z,0.70
2022-07-25T21:54:42.428Z,1.15
2022-07-25T21:57:13.767Z,0.90
2022-07-25T21:59:42.024Z,1.05
2022-07-25T22:02:08.683Z,0.70
2022-07-25T22:04:35.276Z,0.50
2022-07-25T22:07:02.138Z,0.80
2022-07-25T22:09:28.724Z,0.85
2022-07-25T22:11:57.478Z,0.75
2022-07-25T22:14:24.148Z,0.82
2022-07-25T22:16:51.054Z,0.87
2022-07-25T22:19:21.927Z,0.90
2022-07-25T22:21:49.138Z,1.10
2022-07-25T22:24:15.884Z,0.80
2022-07-25T22:26:42.855Z,0.93
2022-07-25T22:29:09.812Z,0.70
2022-07-25T22:31:38.870Z,0.85
2022-07-25T22:34:05.791Z,0.90
2022-07-25T22:36:32.366Z,0.77
2022-07-25T22:38:58.945Z,1.00
2022-07-25T22:41:25.435Z,1.30
2022-07-25T22:43:57.766Z,1.05
2022-07-25T22:46:26.638Z,1.30
2022-07-25T22:48:53.351Z,0.70
2022-07-25T22:51:20.156Z,0.95
2022-07-25T22:53:46.597Z,1.00
2022-07-25T22:56:13.174Z,0.85
2022-07-25T22:58:39.729Z,0.90
2022-07-25T23:01:06.486Z,0.65
2022-07-25T23:03:34.453Z,0.90
2022-07-25T23:06:00.954Z,1.03
2022-07-25T23:08:28.001Z,0.88
2022-07-25T23:10:54.916Z,0.75
2022-07-25T23:13:21.497Z,1.10
2022-07-25T23:15:49.993Z,1.45
2022-07-25T23:18:19.402Z,0.87
2022-07-25T23:20:46.182Z,1.00
2022-07-25T23:23:13.103Z,1.42
2022-07-25T23:25:39.801Z,1.05
2022-07-25T23:28:06.397Z,1.00
2022-07-25T23:30:38.004Z,0.77
2022-07-25T23:33:07.130Z,1.08
2022-07-25T23:35:33.779Z,0.70
2022-07-25T23:38:00.346Z,0.90
2022-07-25T23:40:27.546Z,1.42
2022-07-25T23:42:54.476Z,1.43
2022-07-25T23:45:21.827Z,1.33
2022-07-25T23:47:51.431Z,0.70
2022-07-25T23:50:18.666Z,1.17
2022-07-25T23:52:45.188Z,0.63
2022-07-25T23:55:11.788Z,0.90
2022-07-25T23:57:38.329Z,0.82
